FIMR

Sir Charles Gaetan Duval Airport

Port Mathurin, Mauritius
METAR FIMR 180200Z 10016KT 9999 SCT018 22/16 Q1022
Observed Flight Rules
Aug-18 @ 02:00 UTC (27 minutes ago) Visual Flight Rules
Wind Visibility Clouds
100° at 16 knots 10,000+ meters
  • Scattered at 1,800' AGL
Temperatures Readings
Current 22°C / 72°F
Dewpoint 16°C / 61°F
Humidity 69%
Altimeter 30.18" Hg
Pressure 1022 hPa
Elevation 31
METAR FIMR 180200Z 10016KT 9999 SCT018 22/16 Q1022
Observed Flight Rules
Aug-18 @ 02:00 UTC
(27 minutes ago)
VFR
Wind Visibility
100° at 16 knots 10,000+ meters
Clouds
  • Scattered at 1,800' AGL
Temperature Dewpoint
22°C / 72°F 16°C / 61°F
Humidity Altimeter Pressure
69% 30.18" Hg 1022 hPa